Time;durP1;ratioP1;P1;durP2;ratioP2;P2;SDS_P1;SDS_P2;PMS_P1;PMS_P2;Temp;Humidity;BMP_temperature;BMP_pressure;BME280_temperature;BME280_humidity;BME280_pressure;Samples;Min_cycle;Max_cycle;Signal;HPM_P1;HPM_P2
2023/10/23 00:01:04;;;;;;;9.52;6.15;;;11.30;99.70;;;;;;5022629;28;20028;-79
2023/10/23 00:03:30;;;;;;;10.50;6.72;;;11.30;99.70;;;;;;5022914;28;20022;-79
2023/10/23 00:05:55;;;;;;;11.07;6.30;;;11.30;99.80;;;;;;5023651;28;20045;-79
2023/10/23 00:08:21;;;;;;;8.80;6.13;;;11.20;99.80;;;;;;5023100;28;20022;-79
2023/10/23 00:10:47;;;;;;;9.88;6.10;;;11.20;99.90;;;;;;5023709;28;20511;-79
2023/10/23 00:13:12;;;;;;;8.18;5.55;;;11.20;99.90;;;;;;5021235;28;20018;-79
2023/10/23 00:15:39;;;;;;;8.00;5.68;;;11.10;99.90;;;;;;5023310;28;20014;-80
2023/10/23 00:18:05;;;;;;;9.00;5.53;;;11.10;99.90;;;;;;5023791;28;20101;-79
2023/10/23 00:20:31;;;;;;;9.48;5.90;;;11.10;99.90;;;;;;5024455;28;20037;-80
2023/10/23 00:22:57;;;;;;;11.75;6.70;;;11.10;99.90;;;;;;5022139;28;20045;-80
2023/10/23 00:25:22;;;;;;;10.37;6.40;;;11.10;99.90;;;;;;5021619;28;20010;-79
2023/10/23 00:27:48;;;;;;;11.25;7.05;;;11.00;99.90;;;;;;5022990;28;20054;-79
2023/10/23 00:30:14;;;;;;;9.98;6.88;;;11.00;99.90;;;;;;5021354;28;20022;-79
2023/10/23 00:32:39;;;;;;;12.48;6.82;;;11.00;99.90;;;;;;5023126;28;20059;-79
2023/10/23 00:35:06;;;;;;;9.95;6.10;;;11.00;99.90;;;;;;5023083;28;20045;-79
2023/10/23 00:37:32;;;;;;;10.57;6.60;;;11.00;99.90;;;;;;5022397;28;20060;-80
2023/10/23 00:39:57;;;;;;;12.00;7.00;;;11.00;99.90;;;;;;5024012;28;20025;-79
2023/10/23 00:42:23;;;;;;;9.40;6.53;;;10.90;99.90;;;;;;5021685;28;20026;-80
2023/10/23 00:44:49;;;;;;;11.32;6.85;;;10.90;99.90;;;;;;5023625;28;20367;-79
2023/10/23 00:47:16;;;;;;;9.82;6.80;;;10.90;99.90;;;;;;5021297;28;20215;-79
2023/10/23 00:49:43;;;;;;;13.18;7.30;;;10.90;99.90;;;;;;5022840;28;20026;-79
2023/10/23 00:52:09;;;;;;;11.07;7.05;;;10.90;99.90;;;;;;5020695;28;20032;-80
2023/10/23 00:54:34;;;;;;;10.77;6.87;;;10.90;99.90;;;;;;5022752;28;20026;-79
2023/10/23 00:57:02;;;;;;;10.35;6.90;;;10.80;99.90;;;;;;5022023;28;20026;-79
2023/10/23 00:59:27;;;;;;;10.75;7.32;;;10.80;99.90;;;;;;5021695;28;20025;-79
2023/10/23 01:01:53;;;;;;;8.87;6.47;;;10.80;99.90;;;;;;5022755;28;20428;-79
2023/10/23 01:04:20;;;;;;;10.77;6.70;;;10.80;99.90;;;;;;5021148;28;20018;-79
2023/10/23 01:06:46;;;;;;;11.43;7.07;;;10.90;99.90;;;;;;5022273;28;20026;-79
2023/10/23 01:09:12;;;;;;;9.90;6.65;;;10.80;99.90;;;;;;5022281;28;20113;-79
2023/10/23 01:11:37;;;;;;;9.75;6.53;;;10.90;99.90;;;;;;5022551;28;20014;-80
2023/10/23 01:14:03;;;;;;;14.25;6.68;;;10.90;99.90;;;;;;5023018;28;20045;-80
2023/10/23 01:16:29;;;;;;;10.68;6.70;;;10.90;99.90;;;;;;5021880;28;20017;-80
2023/10/23 01:18:54;;;;;;;11.15;7.32;;;10.90;99.90;;;;;;5023932;28;20025;-80
2023/10/23 01:21:20;;;;;;;10.70;7.17;;;10.90;99.90;;;;;;5020484;28;20065;-80
2023/10/23 01:23:49;;;;;;;10.13;7.05;;;10.90;99.90;;;;;;5022505;28;20105;-80
2023/10/23 01:26:14;;;;;;;11.93;6.65;;;10.90;99.90;;;;;;5020777;28;20068;-79
2023/10/23 01:28:40;;;;;;;10.70;6.32;;;10.90;99.90;;;;;;5022733;28;20030;-79
2023/10/23 01:31:06;;;;;;;8.85;6.50;;;11.00;99.90;;;;;;5021805;28;20037;-79
2023/10/23 01:33:31;;;;;;;11.07;6.82;;;11.00;99.90;;;;;;5021520;28;20018;-79
2023/10/23 01:35:57;;;;;;;9.73;5.60;;;11.00;99.90;;;;;;5025792;28;20069;-79
2023/10/23 01:38:22;;;;;;;9.20;6.47;;;11.10;99.90;;;;;;5024879;28;20117;-79
2023/10/23 01:40:48;;;;;;;10.65;6.28;;;11.10;99.90;;;;;;5026429;28;20439;-80
2023/10/23 01:43:14;;;;;;;9.88;6.55;;;11.10;99.90;;;;;;5024631;28;20061;-80
2023/10/23 01:45:39;;;;;;;8.88;5.97;;;11.10;99.90;;;;;;5026054;28;20425;-80
2023/10/23 01:48:05;;;;;;;10.90;6.20;;;11.10;99.90;;;;;;5025032;28;20432;-80
2023/10/23 01:50:31;;;;;;;9.65;6.25;;;11.10;99.90;;;;;;5025529;28;20018;-80
2023/10/23 01:52:57;;;;;;;10.85;5.95;;;11.10;99.90;;;;;;5025913;28;20076;-79
2023/10/23 01:55:22;;;;;;;11.65;6.90;;;11.10;99.90;;;;;;5024393;28;20018;-81
2023/10/23 01:57:48;;;;;;;8.80;6.50;;;11.20;99.90;;;;;;5027591;28;20017;-81
2023/10/23 02:00:15;;;;;;;11.18;7.00;;;11.20;99.90;;;;;;5024670;28;20509;-82
2023/10/23 02:02:41;;;;;;;9.75;6.70;;;11.20;99.90;;;;;;5025732;28;20342;-82
2023/10/23 02:05:07;;;;;;;8.65;5.97;;;11.20;99.90;;;;;;5024260;28;20080;-82
2023/10/23 02:07:33;;;;;;;9.40;5.93;;;11.20;99.90;;;;;;5025625;28;20014;-82
2023/10/23 02:10:00;;;;;;;9.45;6.13;;;11.20;99.90;;;;;;5025273;28;20106;-82
2023/10/23 02:12:25;;;;;;;10.18;6.05;;;11.20;99.90;;;;;;5026187;28;20026;-82
2023/10/23 02:14:52;;;;;;;9.07;6.03;;;11.30;99.90;;;;;;5025305;28;20025;-82
2023/10/23 02:17:21;;;;;;;9.60;6.13;;;11.30;99.90;;;;;;5024085;28;20022;-82
2023/10/23 02:19:47;;;;;;;8.00;5.65;;;11.30;99.90;;;;;;5025281;28;20026;-83
2023/10/23 02:22:13;;;;;;;11.63;6.25;;;11.30;99.90;;;;;;5023872;28;20117;-82
2023/10/23 02:24:39;;;;;;;10.55;6.85;;;11.30;99.90;;;;;;5025229;28;20080;-82
2023/10/23 02:27:05;;;;;;;10.15;6.57;;;11.40;99.90;;;;;;5024739;28;20076;-82
2023/10/23 02:29:31;;;;;;;11.95;7.05;;;11.40;99.90;;;;;;5024288;28;20108;-81
2023/10/23 02:31:57;;;;;;;11.23;7.47;;;11.40;99.90;;;;;;5026714;28;20028;-82
2023/10/23 02:34:22;;;;;;;10.43;6.68;;;11.40;99.90;;;;;;5023253;28;20076;-82
2023/10/23 02:36:48;;;;;;;9.95;6.88;;;11.50;99.90;;;;;;5025237;28;20050;-82
2023/10/23 02:39:14;;;;;;;9.48;6.75;;;11.40;99.90;;;;;;5023285;28;20057;-82
2023/10/23 02:41:40;;;;;;;10.20;7.18;;;11.50;99.90;;;;;;5025442;28;20030;-82
2023/10/23 02:44:06;;;;;;;13.73;8.43;;;11.40;99.90;;;;;;5024541;28;20052;-82
2023/10/23 02:46:35;;;;;;;11.10;6.63;;;11.40;99.90;;;;;;5023794;28;20041;-81
2023/10/23 02:49:02;;;;;;;11.77;7.45;;;11.40;99.90;;;;;;5025492;28;20022;-81
2023/10/23 02:51:28;;;;;;;11.85;7.22;;;11.30;99.90;;;;;;5023718;28;20026;-82
2023/10/23 02:53:54;;;;;;;10.52;6.82;;;11.30;99.90;;;;;;5025605;28;20029;-81
2023/10/23 02:56:20;;;;;;;11.77;7.90;;;11.30;99.90;;;;;;5025590;28;20058;-81
2023/10/23 02:58:46;;;;;;;10.75;6.85;;;11.30;99.90;;;;;;5026089;28;20030;-81
2023/10/23 03:01:20;;;;;;;10.57;7.55;;;11.30;99.90;;;;;;5024631;28;20030;-81
2023/10/23 03:03:49;;;;;;;12.52;8.02;;;11.30;99.90;;;;;;5023363;28;20060;-81
2023/10/23 03:06:14;;;;;;;10.55;6.63;;;11.30;99.90;;;;;;5026109;28;20034;-82
2023/10/23 03:08:40;;;;;;;11.27;7.40;;;11.30;99.90;;;;;;5023270;28;20449;-81
2023/10/23 03:11:06;;;;;;;11.05;7.43;;;11.30;99.90;;;;;;5024672;28;20052;-80
2023/10/23 03:13:33;;;;;;;10.05;6.25;;;11.30;99.90;;;;;;5022390;28;20014;-81
2023/10/23 03:15:59;;;;;;;11.60;6.60;;;11.30;99.90;;;;;;5026065;28;20044;-81
2023/10/23 03:18:25;;;;;;;11.48;7.30;;;11.30;99.90;;;;;;5023635;28;20474;-80
2023/10/23 03:20:51;;;;;;;9.77;6.57;;;11.40;99.90;;;;;;5024767;28;20089;-81
2023/10/23 03:23:17;;;;;;;11.57;7.00;;;11.40;99.90;;;;;;5024438;28;20053;-81
2023/10/23 03:25:43;;;;;;;11.48;7.15;;;11.40;99.90;;;;;;5022860;28;20033;-81
2023/10/23 03:28:09;;;;;;;10.48;6.90;;;11.40;99.90;;;;;;5024233;28;20030;-81
2023/10/23 03:30:35;;;;;;;11.32;6.72;;;11.50;99.90;;;;;;5022460;28;20033;-81
2023/10/23 03:33:00;;;;;;;9.38;7.03;;;11.50;99.90;;;;;;5023973;28;20029;-81
2023/10/23 03:35:26;;;;;;;11.18;7.05;;;11.50;99.90;;;;;;5024398;28;20061;-81
2023/10/23 03:37:52;;;;;;;11.18;6.72;;;11.50;99.90;;;;;;5023600;28;20022;-81
2023/10/23 03:40:17;;;;;;;10.38;7.10;;;11.50;99.90;;;;;;5024212;28;20025;-81
2023/10/23 03:42:44;;;;;;;10.80;6.88;;;11.50;99.90;;;;;;5022235;28;20120;-81
2023/10/23 03:45:10;;;;;;;10.50;6.50;;;11.60;99.90;;;;;;5025255;28;20050;-81
2023/10/23 03:47:35;;;;;;;10.52;6.85;;;11.60;99.90;;;;;;5021873;28;20033;-81
2023/10/23 03:50:01;;;;;;;9.35;6.43;;;11.60;99.90;;;;;;5023937;28;20025;-81
2023/10/23 03:52:27;;;;;;;11.30;7.10;;;11.60;99.90;;;;;;5022730;28;20034;-81
2023/10/23 03:54:52;;;;;;;13.88;6.40;;;11.60;99.90;;;;;;5023475;28;20044;-81
2023/10/23 03:57:18;;;;;;;11.88;6.75;;;11.60;99.90;;;;;;5023624;28;20018;-82
2023/10/23 03:59:44;;;;;;;10.10;6.30;;;11.70;99.90;;;;;;5022296;28;20041;-82
2023/10/23 04:02:09;;;;;;;11.13;5.75;;;11.70;99.90;;;;;;5023710;28;20025;-81
2023/10/23 04:04:35;;;;;;;11.20;6.07;;;11.70;99.90;;;;;;5021986;28;20014;-82
2023/10/23 04:07:01;;;;;;;12.38;6.63;;;11.70;99.90;;;;;;5024037;28;20478;-82
2023/10/23 04:09:30;;;;;;;11.02;6.10;;;11.70;99.90;;;;;;5022218;28;20014;-81
2023/10/23 04:11:56;;;;;;;9.50;6.18;;;11.70;99.90;;;;;;5023412;28;20026;-81
2023/10/23 04:14:22;;;;;;;8.75;5.72;;;11.70;99.90;;;;;;5022615;28;20022;-82
2023/10/23 04:16:48;;;;;;;10.18;5.95;;;11.70;99.90;;;;;;5022052;28;20018;-81
2023/10/23 04:19:13;;;;;;;9.63;6.03;;;11.70;99.90;;;;;;5023481;28;20025;-82
2023/10/23 04:21:39;;;;;;;10.93;6.50;;;11.70;99.90;;;;;;5021730;28;20033;-80
2023/10/23 04:24:11;;;;;;;9.10;5.78;;;11.70;99.90;;;;;;5024807;28;20056;-81
2023/10/23 04:26:37;;;;;;;14.00;5.32;;;11.70;99.90;;;;;;5021928;28;20022;-81
2023/10/23 04:29:03;;;;;;;10.13;6.10;;;11.70;99.90;;;;;;5023872;28;20033;-81
2023/10/23 04:31:28;;;;;;;12.20;5.78;;;11.70;99.90;;;;;;5022810;28;20029;-81
2023/10/23 04:33:54;;;;;;;9.32;5.97;;;11.70;99.90;;;;;;5021915;28;20017;-82
2023/10/23 04:36:20;;;;;;;10.38;5.97;;;11.70;99.90;;;;;;5024563;28;20046;-81
2023/10/23 04:38:46;;;;;;;10.40;5.93;;;11.60;99.90;;;;;;5020939;28;20032;-81
2023/10/23 04:41:12;;;;;;;9.13;5.55;;;11.70;99.90;;;;;;5022892;28;20101;-82
2023/10/23 04:43:38;;;;;;;8.02;5.50;;;11.60;99.90;;;;;;5020715;28;20404;-81
2023/10/23 04:46:03;;;;;;;10.73;6.05;;;11.60;99.90;;;;;;5024157;28;20040;-80
2023/10/23 04:48:29;;;;;;;11.88;6.30;;;11.60;99.90;;;;;;5022178;28;20033;-81
2023/10/23 04:51:03;;;;;;;11.75;6.30;;;11.60;99.90;;;;;;5023471;28;20048;-80
2023/10/23 04:53:29;;;;;;;8.60;6.03;;;11.60;99.90;;;;;;5024405;28;20089;-81
2023/10/23 04:55:55;;;;;;;10.77;5.50;;;11.60;99.90;;;;;;5021214;28;20026;-80
2023/10/23 04:58:20;;;;;;;11.95;5.93;;;11.60;99.90;;;;;;5022584;28;20088;-81
2023/10/23 05:00:46;;;;;;;10.77;6.07;;;11.60;99.90;;;;;;5020655;28;20018;-80
2023/10/23 05:03:12;;;;;;;9.55;5.60;;;11.60;99.90;;;;;;5022824;28;20034;-80
2023/10/23 05:05:44;;;;;;;10.48;5.85;;;11.50;99.90;;;;;;5022293;28;20029;-81
2023/10/23 05:08:10;;;;;;;12.05;6.20;;;11.50;99.90;;;;;;5021310;28;20076;-81
2023/10/23 05:10:36;;;;;;;10.77;5.80;;;11.50;99.90;;;;;;5022352;28;20021;-81
2023/10/23 05:13:03;;;;;;;8.88;5.18;;;11.50;99.90;;;;;;5019994;28;20084;-81
2023/10/23 05:15:30;;;;;;;9.00;5.90;;;11.50;99.90;;;;;;5022635;28;20489;-80
2023/10/23 05:17:55;;;;;;;11.63;6.25;;;11.50;99.90;;;;;;5020848;28;20018;-80
2023/10/23 05:20:22;;;;;;;12.82;6.95;;;11.50;99.90;;;;;;5022676;28;20041;-79
2023/10/23 05:22:47;;;;;;;9.77;5.50;;;11.50;99.90;;;;;;5021913;28;20041;-79
2023/10/23 05:25:13;;;;;;;11.05;6.18;;;11.50;99.90;;;;;;5021430;28;20080;-80
2023/10/23 05:27:39;;;;;;;8.70;5.68;;;11.40;99.90;;;;;;5022196;28;20041;-79
2023/10/23 05:30:06;;;;;;;8.73;5.18;;;11.40;99.90;;;;;;5020593;28;20025;-79
2023/10/23 05:32:35;;;;;;;8.68;5.63;;;11.50;99.90;;;;;;5023629;28;20025;-79
2023/10/23 05:35:03;;;;;;;10.57;5.93;;;11.50;99.90;;;;;;5020935;28;20033;-80
2023/10/23 05:37:30;;;;;;;8.70;5.53;;;11.50;99.90;;;;;;5021851;28;20050;-77
2023/10/23 05:39:55;;;;;;;9.63;5.97;;;11.50;99.90;;;;;;5021783;28;20030;-79
2023/10/23 05:42:21;;;;;;;10.63;5.97;;;11.40;99.90;;;;;;5020269;28;20030;-79
2023/10/23 05:44:47;;;;;;;10.40;6.32;;;11.50;99.90;;;;;;5022448;28;20030;-79
2023/10/23 05:47:12;;;;;;;10.20;6.00;;;11.40;99.90;;;;;;5039948;28;20094;-79
2023/10/23 05:49:38;;;;;;;10.77;6.22;;;11.40;99.90;;;;;;5041826;28;20045;-79
2023/10/23 05:52:04;;;;;;;10.10;6.18;;;11.50;99.90;;;;;;5040212;28;20029;-79
2023/10/23 05:54:30;;;;;;;9.15;6.43;;;11.50;99.90;;;;;;5042198;28;20021;-79
2023/10/23 05:56:56;;;;;;;10.13;5.95;;;11.50;99.90;;;;;;5040214;28;20064;-78
2023/10/23 05:59:22;;;;;;;9.75;6.15;;;11.50;99.90;;;;;;5041137;28;20013;-79
2023/10/23 06:01:47;;;;;;;11.00;6.93;;;11.50;99.90;;;;;;5039617;28;20040;-79
2023/10/23 06:04:13;;;;;;;8.98;5.95;;;11.50;99.90;;;;;;5028101;28;20028;-78
2023/10/23 06:06:38;;;;;;;10.73;6.55;;;11.50;99.90;;;;;;5041367;28;20041;-79
2023/10/23 06:09:04;;;;;;;11.38;6.30;;;11.50;99.90;;;;;;5033952;28;20014;-79
2023/10/23 06:11:31;;;;;;;10.95;6.10;;;11.50;99.90;;;;;;5040432;28;20043;-79
2023/10/23 06:13:56;;;;;;;10.77;6.63;;;11.60;99.90;;;;;;5023341;28;20459;-80
2023/10/23 06:16:22;;;;;;;9.43;6.47;;;11.50;99.90;;;;;;5029291;28;20024;-79
2023/10/23 06:18:48;;;;;;;13.10;6.85;;;11.50;99.90;;;;;;5041743;28;20124;-78
2023/10/23 06:21:13;;;;;;;15.32;6.72;;;11.60;99.90;;;;;;5039311;28;20021;-79
2023/10/23 06:23:40;;;;;;;15.10;6.65;;;11.60;99.90;;;;;;5045134;28;20033;-79
2023/10/23 06:26:06;;;;;;;14.60;7.20;;;11.60;99.90;;;;;;5043117;28;20021;-80
2023/10/23 06:28:33;;;;;;;11.60;7.03;;;11.60;99.90;;;;;;5044814;28;20037;-79
2023/10/23 06:31:06;;;;;;;12.63;7.03;;;11.60;99.90;;;;;;5043211;28;20056;-78
2023/10/23 06:33:32;;;;;;;11.35;7.72;;;11.70;99.90;;;;;;5043975;28;20028;-79
2023/10/23 06:35:59;;;;;;;18.35;7.32;;;11.70;99.90;;;;;;5044721;28;20025;-78
2023/10/23 06:38:24;;;;;;;18.58;7.32;;;11.70;99.90;;;;;;5043048;28;20548;-78
2023/10/23 06:40:50;;;;;;;16.15;7.10;;;11.70;99.90;;;;;;5043721;28;20024;-79
2023/10/23 06:43:16;;;;;;;16.02;7.40;;;11.70;99.90;;;;;;5043939;28;20100;-79
2023/10/23 06:45:42;;;;;;;15.75;7.90;;;11.70;99.90;;;;;;5044251;28;20105;-79
2023/10/23 06:48:08;;;;;;;25.88;7.35;;;11.70;99.90;;;;;;5043416;28;20071;-79
2023/10/23 06:50:33;;;;;;;13.85;7.68;;;11.70;99.90;;;;;;5044536;28;20021;-79
2023/10/23 06:52:59;;;;;;;15.23;7.25;;;11.70;99.90;;;;;;5041129;28;20390;-78
2023/10/23 06:55:27;;;;;;;17.55;6.85;;;11.70;99.90;;;;;;5042619;28;20018;-79
2023/10/23 06:57:55;;;;;;;17.77;6.65;;;11.70;99.90;;;;;;5044785;28;20049;-77
2023/10/23 07:00:21;;;;;;;15.45;6.80;;;11.70;99.90;;;;;;5042675;28;20057;-78
2023/10/23 07:02:50;;;;;;;16.48;6.38;;;11.70;99.90;;;;;;5044813;28;20037;-78
2023/10/23 07:05:16;;;;;;;17.27;7.40;;;11.70;99.90;;;;;;5044874;28;20029;-79
2023/10/23 07:07:42;;;;;;;21.17;6.53;;;11.70;99.90;;;;;;5043543;28;20033;-78
2023/10/23 07:10:08;;;;;;;17.25;6.70;;;11.70;99.90;;;;;;5043734;28;20060;-77
2023/10/23 07:12:34;;;;;;;12.43;6.88;;;11.70;99.90;;;;;;5042481;28;20049;-78
2023/10/23 07:15:01;;;;;;;15.23;7.25;;;11.70;99.90;;;;;;5043163;28;20033;-78
2023/10/23 07:17:27;;;;;;;14.98;6.20;;;11.70;99.90;;;;;;5042120;28;20025;-78
2023/10/23 07:19:53;;;;;;;13.73;6.10;;;11.60;99.90;;;;;;5043921;28;20427;-78
2023/10/23 07:22:20;;;;;;;9.23;5.18;;;11.60;99.90;;;;;;5043532;28;20041;-78
2023/10/23 07:24:46;;;;;;;12.75;4.82;;;11.60;99.90;;;;;;5042918;28;20052;-78
2023/10/23 07:27:14;;;;;;;10.32;5.50;;;11.60;99.90;;;;;;5043462;28;20029;-77
2023/10/23 07:29:43;;;;;;;9.45;4.72;;;11.60;99.90;;;;;;5042261;28;20081;-78
2023/10/23 07:32:09;;;;;;;14.13;4.88;;;11.60;99.90;;;;;;5043258;28;20021;-79
2023/10/23 07:34:35;;;;;;;13.27;4.85;;;11.60;99.90;;;;;;5042233;28;20538;-78
2023/10/23 07:37:00;;;;;;;10.10;4.28;;;11.60;99.90;;;;;;5037596;28;20038;-78
2023/10/23 07:39:26;;;;;;;15.02;4.80;;;11.60;99.90;;;;;;5042039;28;20017;-78
2023/10/23 07:41:52;;;;;;;12.93;4.93;;;11.60;99.90;;;;;;5042426;28;20490;-82
2023/10/23 07:44:20;;;;;;;10.88;5.35;;;11.60;99.90;;;;;;5042731;28;20382;-82
2023/10/23 07:46:46;;;;;;;16.27;5.25;;;11.70;99.90;;;;;;5042021;28;20364;-82
2023/10/23 07:49:12;;;;;;;11.05;5.55;;;11.70;99.90;;;;;;5038923;28;20018;-82
2023/10/23 07:51:38;;;;;;;11.80;5.70;;;11.70;99.90;;;;;;5035906;28;20021;-82
2023/10/23 07:54:04;;;;;;;9.73;5.28;;;11.70;99.90;;;;;;5042828;28;20021;-82
2023/10/23 07:56:30;;;;;;;11.70;5.45;;;11.70;99.90;;;;;;5041487;28;20618;-82
2023/10/23 07:58:56;;;;;;;12.40;7.10;;;11.80;99.90;;;;;;5043459;28;20089;-83
2023/10/23 08:01:22;;;;;;;14.82;6.00;;;11.80;99.90;;;;;;5042614;28;20028;-82
2023/10/23 08:03:48;;;;;;;13.18;6.28;;;11.80;99.90;;;;;;5041810;28;20039;-82
2023/10/23 08:06:16;;;;;;;20.08;6.82;;;11.80;99.90;;;;;;5039505;28;20040;-83
2023/10/23 08:08:45;;;;;;;11.65;7.10;;;11.90;99.90;;;;;;5041632;28;20033;-83
2023/10/23 08:11:15;;;;;;;13.52;6.90;;;11.90;99.90;;;;;;5042721;28;20104;-82
2023/10/23 08:13:40;;;;;;;16.63;6.90;;;11.90;99.90;;;;;;5040452;28;20025;-82
2023/10/23 08:16:07;;;;;;;12.52;7.07;;;11.90;99.90;;;;;;5041883;28;20018;-82
2023/10/23 08:18:35;;;;;;;13.88;7.07;;;12.00;99.90;;;;;;5042128;28;20053;-82
2023/10/23 08:21:09;;;;;;;11.20;5.85;;;12.00;99.90;;;;;;5040864;28;20045;-82
2023/10/23 08:23:34;;;;;;;16.98;5.22;;;12.00;99.90;;;;;;5034421;28;20090;-82
2023/10/23 08:26:00;;;;;;;11.05;5.22;;;12.00;99.90;;;;;;5039631;28;20108;-82
2023/10/23 08:28:26;;;;;;;17.00;5.75;;;12.00;99.90;;;;;;5041450;28;20021;-83
2023/10/23 08:30:51;;;;;;;10.02;4.88;;;12.00;99.90;;;;;;5040168;28;20038;-83
2023/10/23 08:33:17;;;;;;;11.98;4.90;;;12.00;99.90;;;;;;5041673;28;20025;-83
2023/10/23 08:35:43;;;;;;;8.98;4.43;;;12.00;99.90;;;;;;5041870;28;20576;-83
2023/10/23 08:38:09;;;;;;;11.00;5.72;;;12.00;99.90;;;;;;5041401;28;20038;-83
2023/10/23 08:40:35;;;;;;;16.30;5.45;;;12.00;99.90;;;;;;5041919;28;20017;-83
2023/10/23 08:43:01;;;;;;;19.55;5.90;;;12.00;99.90;;;;;;5040610;28;20026;-84
2023/10/23 08:45:27;;;;;;;8.77;5.13;;;12.00;99.90;;;;;;5042137;28;20052;-83
2023/10/23 08:47:52;;;;;;;12.57;5.95;;;12.10;99.90;;;;;;5040136;28;20030;-85
2023/10/23 08:50:18;;;;;;;17.50;5.43;;;12.10;99.90;;;;;;5042324;28;20401;-84
2023/10/23 08:52:49;;;;;;;8.55;5.25;;;12.10;99.90;;;;;;5041996;28;20025;-83
2023/10/23 08:55:15;;;;;;;13.60;5.78;;;12.10;99.90;;;;;;5041124;28;20471;-83
2023/10/23 08:57:51;;;;;;;11.13;6.30;;;12.10;99.90;;;;;;5043408;28;20049;-83
2023/10/23 09:00:17;;;;;;;9.60;6.15;;;12.20;99.90;;;;;;5039474;28;20029;-83
2023/10/23 09:02:42;;;;;;;13.60;7.85;;;12.20;99.90;;;;;;5041557;28;20056;-83
2023/10/23 09:05:09;;;;;;;11.98;6.15;;;12.20;99.90;;;;;;5037533;28;20536;-83
2023/10/23 09:07:36;;;;;;;11.57;7.32;;;12.30;99.90;;;;;;5042208;28;20111;-83
2023/10/23 09:10:05;;;;;;;14.40;7.55;;;12.30;99.90;;;;;;5041330;28;20477;-83
2023/10/23 09:12:35;;;;;;;13.02;7.38;;;12.40;99.90;;;;;;5041027;28;20068;-83
2023/10/23 09:15:18;;;;;;;12.20;7.25;;;12.40;99.90;;;;;;5041919;28;20028;-82
2023/10/23 09:17:44;;;;;;;11.25;6.65;;;12.40;99.90;;;;;;5040564;28;20061;-83
2023/10/23 09:20:16;;;;;;;14.68;6.90;;;12.40;99.90;;;;;;5041810;28;20029;-83
2023/10/23 09:22:48;;;;;;;11.68;6.50;;;12.40;99.90;;;;;;5040885;28;20042;-83
2023/10/23 09:25:21;;;;;;;12.70;6.10;;;12.40;99.90;;;;;;5040868;28;20022;-83
2023/10/23 09:27:47;;;;;;;11.65;6.63;;;12.50;99.90;;;;;;5041893;28;20061;-83
2023/10/23 09:30:20;;;;;;;13.40;7.22;;;12.50;99.90;;;;;;5039928;28;20037;-82
2023/10/23 09:32:49;;;;;;;11.07;7.05;;;12.60;99.90;;;;;;5042013;28;20036;-83
2023/10/23 09:35:15;;;;;;;12.23;8.07;;;12.60;99.90;;;;;;5039865;28;20026;-83
2023/10/23 09:37:43;;;;;;;13.52;8.15;;;12.60;99.90;;;;;;5042655;28;20061;-83
2023/10/23 09:40:11;;;;;;;13.48;8.93;;;12.60;99.90;;;;;;5042040;28;20060;-83
2023/10/23 09:42:37;;;;;;;14.70;7.70;;;12.60;99.90;;;;;;5039942;28;20041;-83
2023/10/23 09:45:04;;;;;;;15.20;8.40;;;12.70;99.90;;;;;;5041803;28;20033;-83
2023/10/23 09:47:31;;;;;;;11.65;7.32;;;12.80;99.90;;;;;;5039925;28;20029;-83
2023/10/23 09:49:58;;;;;;;13.43;8.20;;;12.90;99.90;;;;;;5041984;28;20073;-83
2023/10/23 09:52:26;;;;;;;12.57;7.28;;;13.10;99.90;;;;;;5040137;28;20021;-83
2023/10/23 09:55:00;;;;;;;15.27;7.95;;;13.30;99.90;;;;;;5041845;28;20031;-83
2023/10/23 09:57:36;;;;;;;16.80;9.25;;;13.40;99.90;;;;;;5049819;28;20029;-82
2023/10/23 10:00:17;;;;;;;12.27;7.72;;;13.50;99.90;;;;;;5049849;28;20032;-83
2023/10/23 10:03:01;;;;;;;15.07;7.35;;;13.70;99.90;;;;;;5063028;28;20076;-83
2023/10/23 10:05:56;;;;;;;15.95;9.15;;;13.80;99.90;;;;;;5044927;28;20026;-81
2023/10/23 10:08:23;;;;;;;13.27;7.57;;;14.00;99.90;;;;;;5044071;28;20028;-82
2023/10/23 10:10:50;;;;;;;15.73;8.32;;;14.10;99.90;;;;;;5045868;28;20033;-83
2023/10/23 10:13:31;;;;;;;17.13;8.02;;;14.30;99.90;;;;;;5044658;28;20029;-82
2023/10/23 10:15:58;;;;;;;11.70;7.07;;;14.50;99.90;;;;;;5045400;28;20089;-83
2023/10/23 10:18:24;;;;;;;16.13;8.52;;;14.60;99.90;;;;;;5042352;28;20075;-82
2023/10/23 10:20:57;;;;;;;14.65;7.68;;;14.80;99.90;;;;;;5044358;28;20029;-84
2023/10/23 10:23:24;;;;;;;8.85;5.57;;;14.90;99.90;;;;;;5045033;28;20033;-83
2023/10/23 10:25:52;;;;;;;9.45;6.03;;;15.10;99.90;;;;;;5042811;28;20029;-83
2023/10/23 10:28:26;;;;;;;13.65;7.28;;;15.20;99.90;;;;;;5046192;28;20035;-83
2023/10/23 10:30:52;;;;;;;12.32;7.50;;;15.30;99.90;;;;;;5043378;28;20021;-83
2023/10/23 10:33:26;;;;;;;11.93;6.53;;;15.40;99.90;;;;;;5045015;28;20067;-83
2023/10/23 10:36:00;;;;;;;11.82;7.68;;;15.40;99.90;;;;;;5044689;28;20032;-83
2023/10/23 10:38:29;;;;;;;11.05;6.75;;;15.50;99.80;;;;;;5042876;28;20041;-83
2023/10/23 10:41:02;;;;;;;11.15;6.88;;;15.60;99.90;;;;;;5045611;28;20033;-84
2023/10/23 10:43:39;;;;;;;13.15;6.18;;;15.90;99.80;;;;;;5043224;28;20064;-83
2023/10/23 10:46:18;;;;;;;10.05;5.80;;;16.00;99.60;;;;;;5044002;28;20090;-83
2023/10/23 10:48:54;;;;;;;7.38;4.88;;;16.30;99.40;;;;;;5044415;28;20032;-84
2023/10/23 10:51:25;;;;;;;8.90;4.70;;;16.50;99.20;;;;;;5043234;28;20026;-83
2023/10/23 10:54:02;;;;;;;7.03;3.85;;;16.60;99.00;;;;;;5045138;28;20449;-83
2023/10/23 10:56:28;;;;;;;7.18;3.85;;;16.80;98.80;;;;;;5042932;28;20120;-84
2023/10/23 10:58:54;;;;;;;5.93;3.65;;;17.10;98.60;;;;;;5044329;28;20036;-83
2023/10/23 11:01:24;;;;;;;7.10;4.18;;;17.20;98.10;;;;;;5042594;28;20105;-83
2023/10/23 11:03:50;;;;;;;7.45;4.45;;;17.30;97.80;;;;;;5043068;28;20037;-83
2023/10/23 11:06:16;;;;;;;8.40;4.68;;;17.40;97.20;;;;;;5044556;28;20045;-83
2023/10/23 11:08:42;;;;;;;7.55;4.10;;;17.50;96.60;;;;;;5025755;28;20044;-83
2023/10/23 11:11:08;;;;;;;6.60;4.10;;;17.50;96.20;;;;;;5044216;28;20055;-83
2023/10/23 11:13:34;;;;;;;8.20;4.03;;;17.60;95.70;;;;;;5041750;28;20535;-84
2023/10/23 11:16:00;;;;;;;10.25;5.03;;;17.60;95.20;;;;;;5043719;28;20029;-83
2023/10/23 11:18:30;;;;;;;8.73;4.68;;;17.60;94.80;;;;;;5043826;28;20424;-83
2023/10/23 11:21:00;;;;;;;10.55;5.00;;;17.70;94.60;;;;;;5027087;28;20461;-83
2023/10/23 11:23:30;;;;;;;7.32;4.72;;;17.60;94.10;;;;;;5044143;28;20037;-82
2023/10/23 11:25:56;;;;;;;10.57;5.32;;;17.70;93.70;;;;;;5042146;28;20029;-83
2023/10/23 11:28:23;;;;;;;12.82;5.53;;;17.70;93.50;;;;;;5044209;28;20113;-83
2023/10/23 11:31:00;;;;;;;12.43;5.68;;;17.80;93.30;;;;;;5041491;28;20044;-83
2023/10/23 11:33:26;;;;;;;11.55;6.45;;;17.80;93.00;;;;;;5038048;28;20060;-83
2023/10/23 11:35:55;;;;;;;10.48;6.03;;;17.90;92.80;;;;;;5043560;28;20025;-83
2023/10/23 11:38:24;;;;;;;10.32;6.47;;;17.90;92.50;;;;;;5041964;28;20049;-83
2023/10/23 11:40:53;;;;;;;10.48;6.22;;;18.00;92.20;;;;;;5044038;28;20615;-84
2023/10/23 11:43:18;;;;;;;11.73;6.05;;;18.00;92.00;;;;;;5042285;28;20033;-84
2023/10/23 11:45:46;;;;;;;14.18;6.18;;;18.10;91.80;;;;;;5043205;28;20020;-83
2023/10/23 11:48:12;;;;;;;12.30;7.47;;;18.10;91.50;;;;;;5042573;28;20037;-84
2023/10/23 11:50:40;;;;;;;13.10;7.15;;;18.20;91.30;;;;;;5043548;28;20045;-83
2023/10/23 11:53:06;;;;;;;12.77;7.00;;;18.20;91.10;;;;;;5043956;28;20108;-83
2023/10/23 11:55:33;;;;;;;16.27;8.07;;;18.10;90.80;;;;;;5040397;28;20026;-83
2023/10/23 11:57:59;;;;;;;12.82;7.00;;;18.10;90.40;;;;;;5042779;28;20049;-83
2023/10/23 12:00:25;;;;;;;13.20;7.60;;;18.10;90.30;;;;;;5041463;28;20028;-83
2023/10/23 12:02:51;;;;;;;14.32;8.20;;;18.10;90.20;;;;;;5042522;28;20116;-83
2023/10/23 12:05:19;;;;;;;12.50;7.05;;;18.10;90.10;;;;;;5041503;28;20021;-83
2023/10/23 12:07:50;;;;;;;12.93;7.60;;;18.20;90.00;;;;;;5042739;28;20045;-83
2023/10/23 12:10:16;;;;;;;15.18;7.28;;;18.10;89.70;;;;;;5043517;28;20025;-83
2023/10/23 12:12:43;;;;;;;12.05;6.05;;;18.20;89.40;;;;;;5040853;28;20021;-84
2023/10/23 12:15:11;;;;;;;12.25;6.10;;;18.30;88.80;;;;;;5043153;28;20412;-83
2023/10/23 12:17:37;;;;;;;11.38;5.57;;;18.30;88.70;;;;;;5041225;28;20400;-83
2023/10/23 12:20:08;;;;;;;11.13;5.15;;;18.30;88.60;;;;;;5043641;28;20029;-84
2023/10/23 12:22:40;;;;;;;10.10;4.75;;;18.40;88.30;;;;;;5041724;28;20057;-83
2023/10/23 12:25:07;;;;;;;11.73;5.03;;;18.50;88.20;;;;;;5038089;28;20026;-83
2023/10/23 12:27:34;;;;;;;9.98;4.78;;;18.60;87.90;;;;;;5041982;28;20038;-83
2023/10/23 12:30:04;;;;;;;12.02;4.40;;;18.60;87.60;;;;;;5041819;28;20029;-84
2023/10/23 12:32:34;;;;;;;7.00;3.20;;;18.60;87.50;;;;;;5043483;28;20024;-84
2023/10/23 12:35:03;;;;;;;8.07;3.50;;;18.60;87.30;;;;;;5040508;28;20024;-84
2023/10/23 12:37:30;;;;;;;7.43;2.72;;;18.60;87.30;;;;;;5042037;28;20097;-83
2023/10/23 12:39:58;;;;;;;8.73;3.20;;;18.60;86.90;;;;;;5042160;28;20022;-84